Holsted Private Airfield

DK-0030 · 南丹麦大区, 丹麦

罗盘
风向 的 风向 100° Holsted Private Airfield 3/21
风: 7 kt, 3 beaufort

3 kt

6 kt
改变
0 ft 5.000 10.000 15.000 20.000
Cloud Cloud Cloud Cloud
SCT 2.700
Cloud Cloud Cloud Cloud Cloud Cloud
BKN 14.000
METAR EKBI 020050Z AUTO 10007KT 4300 BR SCT027/// BKN140/// 05/05 Q1005

METAR Holsted Private Airfield - DK-0030

Holsted Private Airfield是,丹麦中的小机场。 该机场位于纬度55,56193和经度8,93632。 该机场有一条跑道: 3/21. 这个机场没有ICAO代码,我们使用DK-0030作为参考。 机场在Kobenhavn FIR中。

该航空气象观测是针对Billund Airport在2024年3月2日 01:50, 当地时间进行的。

机场观察

风向为100°,速度为7 kt。

可见度为4,3 km。

有疏云,零星散落的云朵在2.700 ft的高度 和 碎云在14.000 ft的高度。 破损或更高的上限为14.000 ft。

当前天气为薄雾。 温度为5 °C,阵风为1 °C。 露点为5 °C,相对湿度为100%。 海平面上的气压为1005 hPa (QNH)。

白天

今天,太阳从07:10升起,在18:01降落。 这适用于Holsted Private Airfield,世界夏令时可能有所不同。 当地时间与世界标准时间之间的时差为+1 小时。 当前,没有夏令时有效。

公司介绍

我们没有关于这个机场的公司信息。

体会

到Vliegles.nl去找飞行课程,跳伞和其他飞行体验。 浏览页面,了解Holsted Private Airfield附近所有可用的活动。 你也可以使用搜索功能来寻找你所在地附近的特定飞行课程、跳伞或其他飞行体验。

跑道

Id 标题 侧风 逆风 侧风 %
3/21 033°-213° 6 kt 3 kt 92 %

逆风成分最大的方向会被突出显示,并用于横风计算。 这并不一定意味着这个方向在使用。

乌云

2.700 ft SCT 疏云,零星散落的云朵
14.000 ft BKN 碎云

温度 & 天气

天气 薄雾
温度 5 °C
露点 5 °C
相对湿度 100%
风寒 1 °C
Kp-index 0 (0-9)

白天

日出
07:10 (5:03)
中午
12:35
日落
18:00

小工具

你想在你的网站上有一个关于Holsted Private Airfield的当前航空天气(METAR)的小部件吗?

显示HTML代码
?>